Terminal Aerodrome Forecast
Issued by NWS

Home | Current Version | Previous Version | Text Only | Print | Product List | Glossary On
Versions: 1 2 3 4 5 6 7 8 9 10 11 12 13 14 15 16 17 18 19 20 21
000
FTUS45 KBOI 302327
TAFTWF
TAF
KTWF 302327Z 3100/3124 VRB05KT P6SM SCT200
     FM310900 18011KT P6SM SCT200
     FM311600 26011KT P6SM BKN100
     FM312100 26025G35KT P6SM BKN050 BKN100=

USA.gov is the U.S. government's official web portal to all federal, state and local government web resources and services.